createdAt,value
2022-11-06T00:01:43.894Z,3.90
2022-11-06T00:04:10.788Z,3.80
2022-11-06T00:06:49.515Z,3.90
2022-11-06T00:09:19.729Z,4.00
2022-11-06T00:11:48.236Z,3.80
2022-11-06T00:14:15.513Z,3.70
2022-11-06T00:16:43.147Z,3.60
2022-11-06T00:19:10.891Z,3.50
2022-11-06T00:21:38.158Z,3.70
2022-11-06T00:24:07.689Z,4.00
2022-11-06T00:26:35.407Z,4.10
2022-11-06T00:29:03.832Z,4.10
2022-11-06T00:31:33.466Z,4.30
2022-11-06T00:34:01.286Z,4.40
2022-11-06T00:36:32.727Z,4.30
2022-11-06T00:39:00.267Z,4.40
2022-11-06T00:41:31.224Z,4.40
2022-11-06T00:44:00.504Z,4.40
2022-11-06T00:46:27.847Z,4.40
2022-11-06T00:48:55.120Z,4.30
2022-11-06T00:51:27.674Z,4.20
2022-11-06T00:54:00.204Z,4.20
2022-11-06T00:56:27.969Z,4.40
2022-11-06T00:58:55.419Z,4.50
2022-11-06T01:01:25.357Z,4.70
2022-11-06T01:03:55.965Z,4.60
2022-11-06T01:06:30.591Z,4.60
2022-11-06T01:08:58.772Z,4.60
2022-11-06T01:11:46.480Z,4.70
2022-11-06T01:14:20.182Z,4.90
2022-11-06T01:16:47.676Z,4.90
2022-11-06T01:19:16.060Z,5.10
2022-11-06T01:21:45.457Z,5.10
2022-11-06T01:24:15.139Z,4.90
2022-11-06T01:26:58.461Z,5.00
2022-11-06T01:29:29.104Z,5.00
2022-11-06T01:31:55.944Z,5.10
2022-11-06T01:34:22.793Z,5.10
2022-11-06T01:36:49.737Z,5.00
2022-11-06T01:39:16.765Z,5.00
2022-11-06T01:41:49.991Z,5.10
2022-11-06T01:44:40.930Z,5.00
2022-11-06T01:47:26.349Z,5.00
2022-11-06T01:50:00.391Z,4.70
2022-11-06T01:52:29.231Z,4.50
2022-11-06T01:55:05.562Z,4.50
2022-11-06T01:57:32.434Z,4.70
2022-11-06T01:59:59.659Z,4.90
2022-11-06T02:02:26.714Z,4.90
2022-11-06T02:04:53.704Z,4.80
2022-11-06T02:07:21.147Z,4.60
2022-11-06T02:09:48.418Z,4.30
2022-11-06T02:12:31.443Z,4.20
2022-11-06T02:15:13.446Z,4.10
2022-11-06T02:18:06.805Z,4.20
2022-11-06T02:20:54.689Z,4.30
2022-11-06T02:23:50.876Z,4.30
2022-11-06T02:26:24.571Z,4.30
2022-11-06T02:29:01.302Z,4.30
2022-11-06T02:31:35.251Z,4.30
2022-11-06T02:34:08.745Z,4.30
2022-11-06T02:36:40.793Z,4.50
2022-11-06T02:39:13.131Z,4.50
2022-11-06T02:41:44.676Z,4.60
2022-11-06T02:44:17.486Z,4.60
2022-11-06T02:46:50.950Z,4.60
2022-11-06T02:49:20.286Z,4.50
2022-11-06T02:51:52.744Z,4.30
2022-11-06T02:54:22.671Z,4.20
2022-11-06T02:56:52.704Z,4.30
2022-11-06T02:59:25.566Z,4.50
2022-11-06T03:02:00.488Z,4.30
2022-11-06T03:04:45.523Z,3.90
2022-11-06T03:07:21.074Z,3.90
2022-11-06T03:09:49.196Z,3.60
2022-11-06T03:12:22.923Z,3.70
2022-11-06T03:15:06.605Z,3.90
2022-11-06T03:17:43.241Z,3.70
2022-11-06T03:20:18.482Z,3.40
2022-11-06T03:22:54.462Z,3.50
2022-11-06T03:25:27.095Z,3.70
2022-11-06T03:28:12.101Z,3.70
2022-11-06T03:30:44.922Z,3.40
2022-11-06T03:33:24.903Z,3.60
2022-11-06T03:35:56.492Z,3.30
2022-11-06T03:38:32.329Z,3.30
2022-11-06T03:41:10.435Z,3.60
2022-11-06T03:43:41.010Z,3.80
2022-11-06T03:46:14.650Z,3.50
2022-11-06T03:48:49.400Z,3.70
2022-11-06T03:51:29.396Z,3.90
2022-11-06T03:54:11.516Z,4.00
2022-11-06T03:56:46.313Z,3.80
2022-11-06T03:59:15.285Z,3.80
2022-11-06T04:01:45.547Z,3.70
2022-11-06T04:04:19.352Z,4.00
2022-11-06T04:06:57.702Z,3.90
2022-11-06T04:09:48.069Z,4.00
2022-11-06T04:12:39.173Z,4.10
2022-11-06T04:15:09.515Z,4.40
2022-11-06T04:17:37.292Z,4.50
2022-11-06T04:20:09.698Z,4.40
2022-11-06T04:23:21.447Z,4.50
2022-11-06T04:26:28.727Z,4.70
2022-11-06T04:29:09.449Z,4.70
2022-11-06T04:31:51.914Z,4.80
2022-11-06T04:34:47.966Z,4.80
2022-11-06T04:37:23.271Z,4.60
2022-11-06T04:40:10.622Z,4.30
2022-11-06T04:42:47.592Z,4.50
2022-11-06T04:45:20.471Z,4.40
2022-11-06T04:47:48.139Z,4.50
2022-11-06T04:50:17.469Z,4.80
2022-11-06T04:52:45.341Z,4.90
2022-11-06T04:55:12.311Z,4.90
2022-11-06T04:57:39.208Z,5.00
2022-11-06T05:00:07.078Z,4.90
2022-11-06T05:02:33.963Z,4.90
2022-11-06T05:05:00.811Z,5.00
2022-11-06T05:07:27.806Z,5.10
2022-11-06T05:09:54.640Z,5.20
2022-11-06T05:12:21.990Z,5.10
2022-11-06T05:14:48.866Z,5.20
2022-11-06T05:17:15.725Z,5.10
2022-11-06T05:19:42.613Z,5.10
2022-11-06T05:22:28.655Z,5.20
2022-11-06T05:24:55.537Z,5.00
2022-11-06T05:27:22.414Z,5.00
2022-11-06T05:29:49.270Z,5.00
2022-11-06T05:32:16.155Z,5.10
2022-11-06T05:34:42.991Z,5.10
2022-11-06T05:37:09.830Z,5.00
2022-11-06T05:39:41.416Z,5.10
2022-11-06T05:42:08.923Z,4.90
2022-11-06T05:44:36.029Z,5.10
2022-11-06T05:47:02.944Z,5.00
2022-11-06T05:49:29.802Z,5.00
2022-11-06T05:51:56.688Z,5.00
2022-11-06T05:54:23.545Z,4.90
2022-11-06T05:56:50.350Z,4.90
2022-11-06T05:59:17.227Z,5.00
2022-11-06T06:01:44.137Z,4.80
2022-11-06T06:04:11.136Z,4.80
2022-11-06T06:06:39.140Z,4.80
2022-11-06T06:09:06.019Z,4.90
2022-11-06T06:11:32.901Z,4.80
2022-11-06T06:14:00.937Z,4.90
2022-11-06T06:16:28.378Z,5.00
2022-11-06T06:18:55.202Z,4.90
2022-11-06T06:21:22.049Z,4.80
2022-11-06T06:23:48.854Z,4.60
2022-11-06T06:26:15.725Z,4.50
2022-11-06T06:28:42.648Z,4.70
2022-11-06T06:31:10.773Z,4.50
2022-11-06T06:33:37.652Z,4.60
2022-11-06T06:36:05.494Z,4.60
2022-11-06T06:38:32.315Z,4.60
2022-11-06T06:41:07.295Z,4.50
2022-11-06T06:43:34.764Z,4.80
2022-11-06T06:46:03.797Z,4.90
2022-11-06T06:48:30.958Z,4.90
2022-11-06T06:51:03.155Z,4.90
2022-11-06T06:53:29.961Z,4.80
2022-11-06T06:56:01.015Z,4.80
2022-11-06T06:58:31.643Z,4.70
2022-11-06T07:01:05.252Z,4.70
2022-11-06T07:03:32.898Z,4.70
2022-11-06T07:05:59.885Z,4.70
2022-11-06T07:08:28.042Z,4.70
2022-11-06T07:11:06.586Z,4.70
2022-11-06T07:13:36.136Z,4.80
2022-11-06T07:16:08.964Z,4.70
2022-11-06T07:18:36.477Z,4.80
2022-11-06T07:21:08.209Z,4.90
2022-11-06T07:23:36.111Z,5.00
2022-11-06T07:26:05.025Z,4.90
2022-11-06T07:28:32.614Z,5.10
2022-11-06T07:31:00.865Z,5.20
2022-11-06T07:33:27.786Z,5.20
2022-11-06T07:35:54.646Z,5.40
2022-11-06T07:38:21.445Z,5.50
2022-11-06T07:40:48.337Z,5.70
2022-11-06T07:43:15.438Z,5.60
2022-11-06T07:45:42.330Z,5.80
2022-11-06T07:48:09.256Z,5.80
2022-11-06T07:50:36.113Z,5.90
2022-11-06T07:53:04.004Z,5.90
2022-11-06T07:55:30.814Z,6.00
2022-11-06T07:57:59.568Z,6.20
2022-11-06T08:00:26.566Z,6.10
2022-11-06T08:02:53.868Z,6.30
2022-11-06T08:05:21.112Z,6.30
2022-11-06T08:07:47.983Z,6.50
2022-11-06T08:10:14.924Z,6.60
2022-11-06T08:12:41.730Z,6.60
2022-11-06T08:15:08.846Z,6.80
2022-11-06T08:17:35.648Z,6.60
2022-11-06T08:20:02.519Z,6.70
2022-11-06T08:22:29.388Z,6.70
2022-11-06T08:24:56.214Z,6.70
2022-11-06T08:27:23.091Z,7.00
2022-11-06T08:29:49.996Z,7.20
2022-11-06T08:32:16.827Z,7.00
2022-11-06T08:34:43.742Z,7.00
2022-11-06T08:37:11.516Z,6.90
2022-11-06T08:39:38.417Z,6.90
2022-11-06T08:42:05.886Z,6.80
2022-11-06T08:44:32.873Z,6.60
2022-11-06T08:46:59.787Z,6.60
2022-11-06T08:49:26.634Z,6.70
2022-11-06T08:51:54.618Z,6.70
2022-11-06T08:54:21.619Z,6.70
2022-11-06T08:56:49.066Z,6.80
2022-11-06T08:59:16.106Z,6.80
2022-11-06T09:01:43.101Z,6.90
2022-11-06T09:04:10.029Z,7.10
2022-11-06T09:06:37.124Z,7.00
2022-11-06T09:09:04.201Z,6.80
2022-11-06T09:11:31.054Z,6.80
2022-11-06T09:13:58.550Z,6.70
2022-11-06T09:16:26.380Z,6.70
2022-11-06T09:18:56.902Z,6.70
2022-11-06T09:21:24.172Z,6.80
2022-11-06T09:23:51.111Z,6.80
2022-11-06T09:26:18.064Z,6.80
2022-11-06T09:28:45.982Z,6.80
2022-11-06T09:31:12.900Z,6.70
2022-11-06T09:33:39.829Z,6.80
2022-11-06T09:36:07.358Z,6.70
2022-11-06T09:38:34.243Z,6.70
2022-11-06T09:41:02.989Z,6.90
2022-11-06T09:44:12.163Z,6.90
2022-11-06T09:46:46.716Z,7.00
2022-11-06T09:49:33.721Z,7.10
2022-11-06T09:52:33.743Z,7.10
2022-11-06T09:55:21.278Z,7.20
2022-11-06T09:58:05.246Z,7.20
2022-11-06T10:00:33.301Z,7.20
2022-11-06T10:03:03.538Z,7.10
2022-11-06T10:05:33.716Z,7.00
2022-11-06T10:08:22.345Z,7.00
2022-11-06T10:11:03.668Z,6.90
2022-11-06T10:13:49.293Z,6.90
2022-11-06T10:16:34.602Z,6.80
2022-11-06T10:19:10.776Z,6.70
2022-11-06T10:21:54.211Z,6.80
2022-11-06T10:24:23.985Z,6.80
2022-11-06T10:26:56.861Z,6.80
2022-11-06T10:29:48.907Z,6.80
2022-11-06T10:32:28.138Z,6.80
2022-11-06T10:35:02.164Z,6.80
2022-11-06T10:37:57.641Z,6.80
2022-11-06T10:40:28.726Z,6.80
2022-11-06T10:43:13.740Z,6.80
2022-11-06T10:45:45.133Z,6.90
2022-11-06T10:48:27.404Z,6.90
2022-11-06T10:51:18.198Z,6.90
2022-11-06T10:54:10.999Z,6.90
2022-11-06T10:56:58.764Z,6.80
2022-11-06T10:59:25.680Z,6.80
2022-11-06T11:01:52.637Z,6.80
2022-11-06T11:04:19.589Z,6.90
2022-11-06T11:06:46.418Z,6.90
2022-11-06T11:09:40.612Z,7.00
2022-11-06T11:12:24.207Z,6.90
2022-11-06T11:15:10.676Z,6.90
2022-11-06T11:17:38.045Z,7.00
2022-11-06T11:20:32.418Z,6.90
2022-11-06T11:23:16.263Z,7.00
2022-11-06T11:25:45.751Z,7.20
2022-11-06T11:28:27.049Z,7.10
2022-11-06T11:31:03.213Z,7.20
2022-11-06T11:33:30.237Z,7.20
2022-11-06T11:35:57.359Z,7.40
2022-11-06T11:38:26.127Z,7.20
2022-11-06T11:41:08.450Z,7.10
2022-11-06T11:43:35.455Z,7.10
2022-11-06T11:46:08.382Z,6.90
2022-11-06T11:48:53.191Z,6.80
2022-11-06T11:51:22.777Z,6.90
2022-11-06T11:53:50.038Z,6.80
2022-11-06T11:56:42.536Z,6.60
2022-11-06T11:59:27.513Z,6.80
2022-11-06T12:02:04.993Z,6.60
2022-11-06T12:04:38.799Z,6.60
2022-11-06T12:07:12.388Z,6.60
2022-11-06T12:09:44.080Z,6.60
2022-11-06T12:12:26.684Z,6.50
2022-11-06T12:15:21.336Z,6.40
2022-11-06T12:17:56.773Z,6.70
2022-11-06T12:20:41.655Z,6.70
2022-11-06T12:23:41.937Z,6.60
2022-11-06T12:26:22.423Z,6.60
2022-11-06T12:28:51.537Z,6.60
2022-11-06T12:32:00.838Z,6.60
2022-11-06T12:34:45.525Z,6.60
2022-11-06T12:37:50.866Z,6.50
2022-11-06T12:40:25.867Z,6.40
2022-11-06T12:43:14.643Z,6.30
2022-11-06T12:46:06.040Z,6.20
2022-11-06T12:49:18.156Z,6.20
2022-11-06T12:52:03.837Z,6.20
2022-11-06T12:54:52.538Z,6.20
2022-11-06T12:57:39.698Z,6.10
2022-11-06T13:00:19.024Z,6.20
2022-11-06T13:03:03.746Z,6.00
2022-11-06T13:05:35.811Z,6.20
2022-11-06T13:08:10.080Z,6.30
2022-11-06T13:10:57.485Z,6.50
2022-11-06T13:13:30.012Z,6.40
2022-11-06T13:16:04.756Z,6.40
2022-11-06T13:18:37.339Z,6.40
2022-11-06T13:21:21.674Z,6.30
2022-11-06T13:23:51.279Z,6.30
2022-11-06T13:26:28.578Z,6.30
2022-11-06T13:29:02.917Z,6.30
2022-11-06T13:31:40.627Z,6.40
2022-11-06T13:34:11.264Z,6.30
2022-11-06T13:36:38.659Z,6.40
2022-11-06T13:39:28.339Z,6.40
2022-11-06T13:41:56.570Z,6.50
2022-11-06T13:44:24.479Z,6.40
2022-11-06T13:47:14.744Z,6.40
2022-11-06T13:50:04.680Z,6.30
2022-11-06T13:52:52.038Z,6.20
2022-11-06T13:55:36.014Z,6.20
2022-11-06T13:58:27.045Z,6.20
2022-11-06T14:01:31.846Z,6.10
2022-11-06T14:04:29.631Z,6.30
2022-11-06T14:07:00.962Z,6.20
2022-11-06T14:09:32.663Z,6.30
2022-11-06T14:12:03.757Z,6.20
2022-11-06T14:14:32.903Z,6.30
2022-11-06T14:17:17.924Z,6.30
2022-11-06T14:19:51.213Z,6.20
2022-11-06T14:22:33.863Z,5.90
2022-11-06T14:25:02.316Z,6.10
2022-11-06T14:27:29.364Z,6.00
2022-11-06T14:30:05.430Z,6.10
2022-11-06T14:32:32.382Z,5.90
2022-11-06T14:35:34.303Z,6.00
2022-11-06T14:38:10.450Z,6.00
2022-11-06T14:40:38.648Z,6.10
2022-11-06T14:43:24.849Z,6.50
2022-11-06T14:46:04.591Z,6.40
2022-11-06T14:48:39.428Z,6.60
2022-11-06T14:51:10.156Z,6.40
2022-11-06T14:53:49.550Z,6.60
2022-11-06T14:56:29.541Z,6.50
2022-11-06T14:59:07.463Z,6.50
2022-11-06T15:01:37.857Z,6.60
2022-11-06T15:04:05.881Z,6.60
2022-11-06T15:06:32.691Z,6.60
2022-11-06T15:09:07.074Z,6.50
2022-11-06T15:11:34.832Z,6.50
2022-11-06T15:14:07.747Z,6.40
2022-11-06T15:16:38.983Z,6.60
2022-11-06T15:19:11.673Z,6.60
2022-11-06T15:21:50.178Z,6.60
2022-11-06T15:24:34.321Z,6.60
2022-11-06T15:27:16.173Z,6.70
2022-11-06T15:29:45.008Z,6.70
2022-11-06T15:32:19.588Z,6.60
2022-11-06T15:34:56.228Z,6.60
2022-11-06T15:37:38.945Z,6.60
2022-11-06T15:40:06.562Z,6.60
2022-11-06T15:42:37.257Z,6.60
2022-11-06T15:45:22.720Z,6.50
2022-11-06T15:48:01.621Z,6.60
2022-11-06T15:50:36.683Z,6.70
2022-11-06T15:53:16.104Z,6.60
2022-11-06T15:56:07.921Z,6.70
2022-11-06T15:58:37.551Z,6.70
2022-11-06T16:01:06.572Z,6.60
2022-11-06T16:03:54.969Z,6.70
2022-11-06T16:06:22.037Z,6.50
2022-11-06T16:08:50.841Z,6.60
2022-11-06T16:11:20.138Z,6.60
2022-11-06T16:13:47.766Z,6.60
2022-11-06T16:16:33.461Z,6.50
2022-11-06T16:19:01.528Z,6.60
2022-11-06T16:21:31.855Z,6.50
2022-11-06T16:24:12.687Z,6.30
2022-11-06T16:26:49.315Z,6.40
2022-11-06T16:29:20.641Z,6.40
2022-11-06T16:31:48.890Z,6.60
2022-11-06T16:34:35.519Z,6.50
2022-11-06T16:37:29.805Z,6.40
2022-11-06T16:40:00.185Z,6.50
2022-11-06T16:42:36.047Z,6.40
2022-11-06T16:45:15.052Z,6.30
2022-11-06T16:47:41.950Z,6.20
2022-11-06T16:50:47.413Z,6.40
2022-11-06T16:53:20.327Z,6.50
2022-11-06T16:56:21.877Z,6.60
2022-11-06T16:58:52.638Z,6.60
2022-11-06T17:01:21.027Z,6.50
2022-11-06T17:04:01.446Z,6.50
2022-11-06T17:06:34.931Z,6.50
2022-11-06T17:09:26.964Z,6.40
2022-11-06T17:11:55.475Z,6.40
2022-11-06T17:14:22.981Z,6.40
2022-11-06T17:16:53.902Z,6.40
2022-11-06T17:19:22.151Z,6.60
2022-11-06T17:21:50.183Z,6.50
2022-11-06T17:24:35.935Z,6.40
2022-11-06T17:27:03.941Z,6.50
2022-11-06T17:29:30.770Z,6.40
2022-11-06T17:31:57.652Z,6.50
2022-11-06T17:34:24.491Z,6.40
2022-11-06T17:36:51.405Z,6.50
2022-11-06T17:39:18.402Z,6.50
2022-11-06T17:41:45.224Z,6.50
2022-11-06T17:44:13.136Z,6.50
2022-11-06T17:46:45.882Z,6.50
2022-11-06T17:49:17.508Z,6.50
2022-11-06T17:51:58.501Z,6.50
2022-11-06T17:54:28.264Z,6.50
2022-11-06T17:56:56.786Z,6.60
2022-11-06T17:59:26.411Z,6.50
2022-11-06T18:01:54.847Z,6.60
2022-11-06T18:04:24.057Z,6.50
2022-11-06T18:06:52.574Z,6.70
2022-11-06T18:09:21.229Z,6.70
2022-11-06T18:11:52.628Z,6.70
2022-11-06T18:14:20.887Z,6.70
2022-11-06T18:16:48.794Z,6.70
2022-11-06T18:19:18.130Z,6.80
2022-11-06T18:21:45.041Z,6.70
2022-11-06T18:24:12.140Z,6.70
2022-11-06T18:26:39.362Z,6.80
2022-11-06T18:29:07.152Z,6.80
2022-11-06T18:31:34.754Z,6.80
2022-11-06T18:34:02.488Z,6.80
2022-11-06T18:36:29.364Z,6.80
2022-11-06T18:38:56.263Z,6.80
2022-11-06T18:41:23.335Z,6.80
2022-11-06T18:43:54.891Z,6.80
2022-11-06T18:46:21.769Z,6.80
2022-11-06T18:48:48.748Z,6.80
2022-11-06T18:51:32.704Z,6.90
2022-11-06T18:54:04.739Z,6.80
2022-11-06T18:56:33.697Z,6.80
2022-11-06T18:59:00.694Z,6.80
2022-11-06T19:01:28.683Z,6.80
2022-11-06T19:03:55.907Z,6.80
2022-11-06T19:06:22.893Z,6.80
2022-11-06T19:08:49.807Z,7.00
2022-11-06T19:11:18.368Z,7.00
2022-11-06T19:13:48.319Z,6.80
2022-11-06T19:16:19.343Z,6.80
2022-11-06T19:21:30.301Z,6.70
2022-11-06T19:24:03.931Z,6.90
2022-11-06T19:26:33.017Z,6.80
2022-11-06T19:29:00.666Z,6.90
2022-11-06T19:31:29.539Z,6.70
2022-11-06T19:34:00.740Z,6.70
2022-11-06T19:36:28.470Z,6.70
2022-11-06T19:38:57.945Z,6.80
2022-11-06T19:41:26.190Z,6.70
2022-11-06T19:43:53.235Z,6.70
2022-11-06T19:46:25.689Z,6.70
2022-11-06T19:48:55.285Z,7.00
2022-11-06T19:51:22.222Z,6.90
2022-11-06T19:53:53.124Z,6.70
2022-11-06T19:56:20.578Z,6.70
2022-11-06T19:58:48.617Z,6.70
2022-11-06T20:01:15.729Z,6.70
2022-11-06T20:03:43.250Z,6.70
2022-11-06T20:06:11.112Z,6.70
2022-11-06T20:08:38.932Z,6.80
2022-11-06T20:11:07.739Z,6.70
2022-11-06T20:13:36.661Z,6.70
2022-11-06T20:16:08.622Z,6.60
2022-11-06T20:18:36.336Z,6.70
2022-11-06T20:21:08.594Z,6.80
2022-11-06T20:23:35.775Z,6.80
2022-11-06T20:26:02.629Z,6.70
2022-11-06T20:28:29.483Z,6.80
2022-11-06T20:30:56.972Z,6.80
2022-11-06T20:33:24.246Z,6.80
2022-11-06T20:35:51.120Z,6.70
2022-11-06T20:38:17.990Z,6.70
2022-11-06T20:40:45.527Z,6.70
2022-11-06T20:43:12.889Z,6.70
2022-11-06T20:45:39.970Z,6.90
2022-11-06T20:48:09.169Z,6.70
2022-11-06T20:50:36.155Z,6.70
2022-11-06T20:53:03.325Z,6.70
2022-11-06T20:55:30.301Z,6.80
2022-11-06T20:57:57.166Z,6.80
2022-11-06T21:00:24.729Z,6.60
2022-11-06T21:02:52.004Z,6.60
2022-11-06T21:05:20.470Z,6.60
2022-11-06T21:07:47.336Z,6.70
2022-11-06T21:10:14.174Z,6.70
2022-11-06T21:12:41.053Z,6.60
2022-11-06T21:15:08.293Z,6.90
2022-11-06T21:17:35.328Z,6.70
2022-11-06T21:20:02.179Z,6.60
2022-11-06T21:22:29.134Z,6.70
2022-11-06T21:24:56.159Z,6.70
2022-11-06T21:27:23.088Z,6.70
2022-11-06T21:29:50.028Z,6.70
2022-11-06T21:32:16.870Z,6.70
2022-11-06T21:34:43.736Z,6.70
2022-11-06T21:37:10.624Z,6.60
2022-11-06T21:39:37.614Z,6.70
2022-11-06T21:42:05.312Z,6.70
2022-11-06T21:44:32.467Z,6.70
2022-11-06T21:46:59.404Z,6.60
2022-11-06T21:49:26.345Z,6.60
2022-11-06T21:51:54.217Z,6.60
2022-11-06T21:54:39.558Z,6.60
2022-11-06T21:57:06.393Z,6.70
2022-11-06T21:59:37.537Z,6.70
2022-11-06T22:02:07.454Z,6.80
2022-11-06T22:04:34.638Z,6.90
2022-11-06T22:07:01.529Z,7.00
2022-11-06T22:09:28.413Z,6.80
2022-11-06T22:11:55.256Z,6.90
2022-11-06T22:14:22.159Z,6.90
2022-11-06T22:16:49.025Z,6.90
2022-11-06T22:19:17.543Z,6.90
2022-11-06T22:21:44.489Z,6.80
2022-11-06T22:24:12.771Z,6.90
2022-11-06T22:26:39.884Z,6.80
2022-11-06T22:29:10.533Z,6.80
2022-11-06T22:31:37.420Z,6.70
2022-11-06T22:34:04.668Z,6.80
2022-11-06T22:36:31.977Z,6.70
2022-11-06T22:39:00.675Z,6.90
2022-11-06T22:41:27.664Z,6.80
2022-11-06T22:43:58.809Z,6.70
2022-11-06T22:46:26.956Z,6.90
2022-11-06T22:48:54.231Z,6.90
2022-11-06T22:51:23.784Z,6.80
2022-11-06T22:53:51.813Z,6.80
2022-11-06T22:56:20.883Z,6.60
2022-11-06T22:58:47.808Z,6.70
2022-11-06T23:01:14.804Z,6.60
2022-11-06T23:03:41.739Z,6.60
2022-11-06T23:06:09.911Z,6.70
2022-11-06T23:08:44.175Z,6.70
2022-11-06T23:11:14.430Z,6.90
2022-11-06T23:13:41.393Z,7.00
2022-11-06T23:16:16.428Z,7.00
2022-11-06T23:18:43.938Z,6.90
2022-11-06T23:21:12.433Z,6.90
2022-11-06T23:23:39.554Z,7.00
2022-11-06T23:26:18.929Z,6.90
2022-11-06T23:28:46.472Z,6.90
2022-11-06T23:31:15.187Z,6.80
2022-11-06T23:33:42.877Z,7.00
2022-11-06T23:36:12.351Z,6.90
2022-11-06T23:38:39.676Z,7.10
2022-11-06T23:41:30.411Z,7.00
2022-11-06T23:43:57.903Z,7.00
2022-11-06T23:46:32.788Z,7.00
2022-11-06T23:49:00.216Z,6.90
2022-11-06T23:51:27.923Z,7.00
2022-11-06T23:53:54.903Z,7.20
2022-11-06T23:56:21.859Z,7.20
2022-11-06T23:58:48.747Z,7.00
